Time;durP1;ratioP1;P1;durP2;ratioP2;P2;SDS_P1;SDS_P2;PMS_P1;PMS_P2;Temp;Humidity;BMP_temperature;BMP_pressure;BME280_temperature;BME280_humidity;BME280_pressure;Samples;Min_cycle;Max_cycle;Signal;HPM_P1;HPM_P2
2023/07/08 00:02:14;;;;;;;10.77;8.45;;;;;;;23.96;58.11;98914.56;5154836;27;20037;-87
2023/07/08 00:04:58;;;;;;;12.93;9.32;;;;;;;23.90;58.51;98917.59;5142023;27;20117;-86
2023/07/08 00:07:43;;;;;;;14.40;8.32;;;;;;;23.72;59.05;98917.25;5156814;27;20194;-87
2023/07/08 00:10:28;;;;;;;12.60;8.30;;;;;;;23.77;58.49;98898.44;5155553;27;20042;-88
2023/07/08 00:13:18;;;;;;;13.98;8.45;;;;;;;23.74;58.48;98901.69;5155839;27;20065;-86
2023/07/08 00:16:03;;;;;;;9.60;8.05;;;;;;;23.56;58.92;98891.69;5142287;27;20578;-88
2023/07/08 00:18:48;;;;;;;9.73;7.28;;;;;;;23.57;58.90;98895.97;5153716;27;20053;-90
2023/07/08 00:21:32;;;;;;;10.60;8.52;;;;;;;23.47;59.09;98899.56;5141816;27;20441;-87
2023/07/08 00:24:16;;;;;;;14.90;8.27;;;;;;;23.48;58.77;98898.47;5156691;27;20041;-86
2023/07/08 00:27:01;;;;;;;9.40;7.72;;;;;;;23.48;58.63;98901.97;5140716;27;20114;-87
2023/07/08 00:29:45;;;;;;;9.70;7.78;;;;;;;23.45;58.93;98896.38;5154451;27;20034;-85
2023/07/08 00:32:29;;;;;;;9.48;7.22;;;;;;;23.59;58.46;98901.88;5155256;27;20045;-86
2023/07/08 00:35:13;;;;;;;9.27;7.80;;;;;;;23.47;59.04;98883.50;5155027;27;20038;-85
2023/07/08 00:38:01;;;;;;;10.20;7.63;;;;;;;23.42;59.08;98895.06;5139282;27;20061;-85
2023/07/08 00:41:18;;;;;;;9.73;7.35;;;;;;;23.39;59.12;98901.78;5155619;27;20074;-86
2023/07/08 00:44:03;;;;;;;10.32;7.80;;;;;;;23.35;58.76;98887.38;5138923;27;20041;-86
2023/07/08 00:47:07;;;;;;;9.52;7.32;;;;;;;23.36;59.36;98888.16;5155391;27;20030;-87
2023/07/08 00:49:57;;;;;;;12.63;8.65;;;;;;;23.28;59.35;98876.19;5154144;27;20041;-86
2023/07/08 00:52:42;;;;;;;9.95;6.95;;;;;;;23.22;59.85;98885.31;5154752;27;20046;-86
2023/07/08 00:55:26;;;;;;;10.80;7.43;;;;;;;23.32;59.34;98876.41;5152050;27;20395;-87
2023/07/08 00:58:11;;;;;;;9.15;6.35;;;;;;;23.31;59.09;98880.19;5155506;27;20065;-86
2023/07/08 01:00:56;;;;;;;8.20;6.78;;;;;;;23.28;59.34;98880.75;5154754;27;20092;-87
2023/07/08 01:04:03;;;;;;;9.43;7.13;;;;;;;23.21;59.31;98875.69;5155170;27;20053;-89
2023/07/08 01:06:59;;;;;;;12.05;8.15;;;;;;;23.24;59.56;98880.47;5153702;27;20059;-86
2023/07/08 01:09:45;;;;;;;10.80;7.32;;;;;;;23.11;59.70;98880.06;5153805;27;20045;-87
2023/07/08 01:12:45;;;;;;;9.43;7.40;;;;;;;23.13;59.91;98874.41;5138371;27;20118;-89
2023/07/08 01:15:36;;;;;;;12.45;8.35;;;;;;;23.14;59.60;98877.91;5154560;27;20064;-88
2023/07/08 01:18:21;;;;;;;9.50;7.38;;;;;;;22.96;59.98;98872.97;5154105;27;20045;-88
2023/07/08 01:21:30;;;;;;;10.48;7.15;;;;;;;22.97;60.03;98882.59;5154468;27;20037;-87
2023/07/08 01:24:14;;;;;;;11.05;7.88;;;;;;;22.98;60.23;98878.03;5152435;27;20423;-85
2023/07/08 01:27:01;;;;;;;10.57;7.28;;;;;;;22.92;60.52;98871.16;5153712;27;20049;-87
2023/07/08 01:29:46;;;;;;;10.88;6.90;;;;;;;22.86;60.30;98864.22;5152926;27;20064;-88
2023/07/08 01:32:32;;;;;;;11.85;7.35;;;;;;;22.96;60.42;98866.81;5154257;27;20449;-87
2023/07/08 01:35:17;;;;;;;11.90;7.82;;;;;;;22.85;60.60;98876.81;5153151;27;20045;-88
2023/07/08 01:38:05;;;;;;;12.90;8.00;;;;;;;22.83;60.61;98873.63;5136425;27;20179;-86
2023/07/08 01:40:54;;;;;;;10.68;8.05;;;;;;;22.82;60.74;98872.03;5136649;27;20030;-84
2023/07/08 01:43:38;;;;;;;12.15;8.23;;;;;;;22.80;60.81;98879.53;5152838;27;20045;-84
2023/07/08 01:46:26;;;;;;;10.80;7.22;;;;;;;22.80;60.83;98883.00;5153152;27;20087;-88
2023/07/08 01:49:10;;;;;;;8.95;7.97;;;;;;;22.74;61.03;98876.09;5153377;27;20041;-85
2023/07/08 01:51:55;;;;;;;11.63;8.13;;;;;;;22.68;61.19;98869.97;5139776;27;20038;-86
2023/07/08 01:54:39;;;;;;;9.15;6.93;;;;;;;22.72;60.94;98866.75;5155397;27;20045;-86
2023/07/08 01:57:23;;;;;;;9.10;7.00;;;;;;;22.76;60.85;98878.47;5154046;27;20392;-84
2023/07/08 02:00:08;;;;;;;8.68;7.18;;;;;;;22.68;60.75;98875.31;5153030;27;20134;-85
2023/07/08 02:02:52;;;;;;;12.93;7.90;;;;;;;22.60;61.05;98873.25;5153019;27;20460;-85
2023/07/08 02:05:36;;;;;;;9.90;7.32;;;;;;;22.57;61.47;98873.00;5136090;27;20034;-85
2023/07/08 02:08:21;;;;;;;11.00;7.45;;;;;;;22.49;61.54;98869.81;5138403;27;20114;-85
2023/07/08 02:11:05;;;;;;;8.85;7.45;;;;;;;22.42;61.66;98857.84;5152863;27;20506;-84
2023/07/08 02:13:49;;;;;;;12.65;8.07;;;;;;;22.46;61.83;98862.34;5154298;27;20164;-84
2023/07/08 02:16:33;;;;;;;10.13;7.53;;;;;;;22.48;61.50;98854.84;5138706;27;20053;-85
2023/07/08 02:19:19;;;;;;;10.82;7.68;;;;;;;22.37;62.20;98854.09;5137984;27;20068;-86
2023/07/08 02:22:04;;;;;;;12.65;8.30;;;;;;;22.36;61.79;98852.50;5153936;27;20109;-85
2023/07/08 02:24:48;;;;;;;10.85;7.65;;;;;;;22.38;62.04;98849.56;5153306;27;20053;-85
2023/07/08 02:27:32;;;;;;;12.43;7.78;;;;;;;22.35;62.08;98845.56;5137552;27;20159;-89
2023/07/08 02:30:15;;;;;;;;;;;;;;;22.42;61.83;98847.16;5153299;27;20045;-86
2023/07/08 02:32:59;;;;;;;9.05;7.20;;;;;;;22.34;62.25;98843.97;5154177;27;19960;-85
2023/07/08 02:35:45;;;;;;;10.93;6.85;;;;;;;22.31;62.21;98841.84;5152028;27;20042;-84
2023/07/08 02:38:29;;;;;;;11.50;8.20;;;;;;;22.21;62.67;98833.91;5151400;27;20069;-84
2023/07/08 02:41:13;;;;;;;10.98;7.75;;;;;;;22.17;62.52;98833.66;5152847;27;20533;-85
2023/07/08 02:43:57;;;;;;;9.50;7.43;;;;;;;22.14;62.45;98834.22;5152306;27;20082;-83
2023/07/08 02:46:41;;;;;;;11.43;6.70;;;;;;;22.06;62.91;98840.94;5136309;27;20439;-83
2023/07/08 02:49:25;;;;;;;12.93;7.57;;;;;;;22.03;62.99;98825.44;5136529;27;20122;-84
2023/07/08 02:52:09;;;;;;;8.93;7.68;;;;;;;21.99;63.45;98832.41;5149150;27;20083;-84
2023/07/08 02:54:53;;;;;;;10.95;7.72;;;;;;;22.06;62.72;98842.78;5153168;27;20110;-84
2023/07/08 02:57:37;;;;;;;10.23;7.28;;;;;;;22.03;63.30;98828.13;5136978;27;20087;-83
2023/07/08 03:00:21;;;;;;;10.48;7.75;;;;;;;22.00;63.19;98823.31;5151195;27;20041;-83
2023/07/08 03:03:05;;;;;;;;;;;;;;;22.00;63.78;98830.53;5136881;27;20054;-85
2023/07/08 03:05:55;;;;;;;9.38;6.88;;;;;;;21.96;63.41;98825.75;5137405;27;19957;-85
2023/07/08 03:08:40;;;;;;;14.90;7.80;;;;;;;21.96;63.39;98820.41;5152599;27;20095;-83
2023/07/08 03:11:24;;;;;;;12.10;7.97;;;;;;;21.91;63.53;98819.63;5152650;27;20449;-84
2023/07/08 03:14:08;;;;;;;10.57;8.25;;;;;;;21.86;63.91;98811.66;5152731;27;20408;-84
2023/07/08 03:16:52;;;;;;;12.40;8.65;;;;;;;21.82;63.88;98816.72;5136370;27;20089;-83
2023/07/08 03:19:36;;;;;;;9.73;7.70;;;;;;;21.79;64.03;98823.41;5152395;27;20079;-84
2023/07/08 03:22:20;;;;;;;11.40;8.30;;;;;;;21.67;64.08;98817.59;5136863;27;20041;-84
2023/07/08 03:25:04;;;;;;;14.80;8.45;;;;;;;21.67;64.64;98814.94;5136542;27;20049;-85
2023/07/08 03:27:48;;;;;;;11.13;8.68;;;;;;;21.64;64.54;98815.47;5152141;27;20042;-84
2023/07/08 03:30:33;;;;;;;9.55;7.80;;;;;;;21.63;64.61;98821.88;5152135;27;20060;-83
2023/07/08 03:33:17;;;;;;;13.15;9.43;;;;;;;21.48;64.84;98812.03;5151798;27;20045;-85
2023/07/08 03:36:03;;;;;;;11.32;8.18;;;;;;;21.58;64.82;98811.19;5151956;27;20053;-85
2023/07/08 03:38:47;;;;;;;11.15;8.68;;;;;;;21.53;65.04;98804.78;5152236;27;20046;-86
2023/07/08 03:41:31;;;;;;;11.18;8.30;;;;;;;21.54;65.12;98798.38;5152156;27;21482;-86
2023/07/08 03:44:15;;;;;;;11.50;9.25;;;;;;;21.36;65.38;98796.31;5151821;27;20038;-85
2023/07/08 03:46:59;;;;;;;12.65;8.55;;;;;;;21.48;65.53;98807.50;5151236;27;20118;-84
2023/07/08 03:49:43;;;;;;;13.52;8.38;;;;;;;21.41;65.82;98817.66;5150404;27;20065;-86
2023/07/08 03:52:27;;;;;;;11.73;9.20;;;;;;;21.27;66.32;98806.75;5152693;27;20037;-86
2023/07/08 03:55:11;;;;;;;12.13;8.02;;;;;;;21.37;65.77;98816.59;5151860;27;20042;-86
2023/07/08 03:57:56;;;;;;;10.90;8.15;;;;;;;21.48;65.76;98815.50;5153675;27;20095;-86
2023/07/08 04:00:40;;;;;;;13.10;7.57;;;;;;;21.51;65.57;98817.63;5155410;27;20087;-86
2023/07/08 04:03:24;;;;;;;11.20;8.55;;;;;;;21.61;65.42;98816.78;5140723;27;20037;-87
2023/07/08 04:06:08;;;;;;;11.50;8.18;;;;;;;21.52;65.84;98816.56;5157035;27;20041;-88
2023/07/08 04:08:52;;;;;;;14.95;8.63;;;;;;;21.59;65.54;98818.13;5155468;27;20061;-87
2023/07/08 04:11:36;;;;;;;12.18;8.52;;;;;;;21.57;65.96;98821.09;5139798;27;20110;-87
2023/07/08 04:14:21;;;;;;;14.57;9.23;;;;;;;21.54;66.28;98819.75;5155462;27;20052;-86
2023/07/08 04:17:05;;;;;;;10.88;7.45;;;;;;;21.63;65.96;98829.88;5156332;27;20099;-85
2023/07/08 04:19:50;;;;;;;11.77;8.13;;;;;;;21.62;66.27;98833.63;5146557;27;20117;-88
2023/07/08 04:22:34;;;;;;;12.85;8.43;;;;;;;21.63;66.21;98829.88;5155873;27;20111;-87
2023/07/08 04:25:18;;;;;;;10.95;7.95;;;;;;;21.71;66.04;98832.00;5139976;27;20069;-85
2023/07/08 04:28:03;;;;;;;10.50;8.10;;;;;;;21.70;66.34;98825.06;5155266;27;20452;-83
2023/07/08 04:30:48;;;;;;;12.20;8.25;;;;;;;21.79;66.28;98823.41;5154522;27;20498;-83
2023/07/08 04:33:32;;;;;;;10.18;7.70;;;;;;;21.76;66.38;98815.16;5154445;27;20394;-84
2023/07/08 04:36:16;;;;;;;11.60;8.07;;;;;;;21.90;66.31;98818.03;5154644;27;20423;-85
2023/07/08 04:39:02;;;;;;;11.27;8.13;;;;;;;21.90;66.39;98821.50;5154629;27;20086;-83
2023/07/08 04:41:45;;;;;;;13.77;8.55;;;;;;;21.96;66.13;98811.56;5139108;27;20388;-85
2023/07/08 04:44:32;;;;;;;11.00;8.18;;;;;;;22.08;66.00;98820.06;5153503;27;20085;-84
2023/07/08 04:47:16;;;;;;;16.02;8.23;;;;;;;22.13;66.17;98821.13;5155157;27;20073;-84
2023/07/08 04:50:00;;;;;;;15.77;8.45;;;;;;;22.18;66.01;98819.22;5138789;27;20073;-84
2023/07/08 04:52:45;;;;;;;14.25;8.68;;;;;;;22.20;66.67;98794.84;5139132;27;20053;-84
2023/07/08 04:55:29;;;;;;;12.65;8.50;;;;;;;22.27;66.38;98806.06;5154175;27;20099;-84
2023/07/08 04:58:13;;;;;;;13.50;9.55;;;;;;;22.34;66.15;98808.44;5154156;27;20091;-83
2023/07/08 05:00:56;;;;;;;12.38;9.05;;;;;;;22.45;66.02;98811.81;5154122;27;20075;-85
2023/07/08 05:03:40;;;;;;;12.85;8.50;;;;;;;22.57;65.92;98808.81;5154244;27;20155;-85
2023/07/08 05:06:25;;;;;;;16.33;8.75;;;;;;;22.58;66.42;98800.50;5138381;27;20099;-85
2023/07/08 05:09:09;;;;;;;13.80;8.50;;;;;;;22.64;66.44;98802.06;5153297;27;20048;-85
2023/07/08 05:11:53;;;;;;;12.82;8.88;;;;;;;22.76;66.31;98806.22;5153880;27;20038;-83
2023/07/08 05:14:37;;;;;;;11.20;8.13;;;;;;;22.90;66.28;98806.41;5138019;27;20060;-83
2023/07/08 05:17:22;;;;;;;10.80;8.50;;;;;;;23.01;65.48;98801.75;5153759;27;20083;-85
2023/07/08 05:20:08;;;;;;;12.90;8.75;;;;;;;23.19;65.75;98813.59;5137749;27;20095;-84
2023/07/08 05:22:52;;;;;;;11.68;8.73;;;;;;;23.33;65.33;98809.19;5153982;27;20449;-83
2023/07/08 05:25:35;;;;;;;12.18;8.30;;;;;;;23.75;64.89;98809.50;5153704;27;20142;-84
2023/07/08 05:28:21;;;;;;;10.88;8.50;;;;;;;24.19;64.34;98812.94;5153440;27;20122;-85
2023/07/08 05:31:05;;;;;;;12.50;8.88;;;;;;;24.50;63.73;98804.44;5153420;27;20068;-83
2023/07/08 05:33:49;;;;;;;12.60;8.90;;;;;;;24.74;62.22;98795.47;5138377;27;20122;-84
2023/07/08 05:36:33;;;;;;;12.38;8.15;;;;;;;25.02;62.09;98794.75;5153933;27;20050;-86
2023/07/08 05:39:17;;;;;;;11.52;8.70;;;;;;;25.25;60.93;98787.59;5137975;27;20042;-85
2023/07/08 05:42:01;;;;;;;15.93;9.27;;;;;;;25.31;60.49;98799.03;5137677;27;20037;-87
2023/07/08 05:44:45;;;;;;;14.07;8.35;;;;;;;25.42;60.52;98791.56;5153280;27;20434;-85
2023/07/08 05:47:29;;;;;;;13.52;8.85;;;;;;;25.66;60.21;98792.19;5138313;27;20087;-84
2023/07/08 05:50:13;;;;;;;12.35;8.35;;;;;;;25.98;60.15;98803.06;5157396;27;20096;-85
2023/07/08 05:52:57;;;;;;;13.85;8.40;;;;;;;26.29;58.97;98809.66;5137583;27;20041;-84
2023/07/08 05:55:42;;;;;;;12.63;8.98;;;;;;;26.32;58.95;98804.44;5157692;27;20037;-86
2023/07/08 05:58:26;;;;;;;12.85;8.98;;;;;;;26.57;58.80;98806.84;5137280;27;20053;-88
2023/07/08 06:01:10;;;;;;;12.60;8.95;;;;;;;26.69;57.50;98812.47;5136508;27;21448;-86
2023/07/08 06:03:57;;;;;;;15.30;9.40;;;;;;;26.59;58.00;98805.44;5137882;27;20465;-86
2023/07/08 06:06:42;;;;;;;12.90;8.82;;;;;;;26.77;58.43;98810.94;5154008;27;20542;-86
2023/07/08 06:09:26;;;;;;;13.73;9.18;;;;;;;26.69;56.79;98806.28;5153652;27;20543;-87
2023/07/08 06:12:11;;;;;;;13.35;9.57;;;;;;;26.99;56.72;98796.63;5137962;27;20095;-85
2023/07/08 06:14:55;;;;;;;13.43;9.45;;;;;;;27.06;57.74;98804.28;5134425;27;20057;-87
2023/07/08 06:17:39;;;;;;;12.13;8.45;;;;;;;26.76;58.13;98804.72;5152908;27;20070;-88
2023/07/08 06:20:23;;;;;;;12.07;8.35;;;;;;;26.52;58.70;98800.47;5153539;27;20114;-86
2023/07/08 06:23:06;;;;;;;12.45;8.90;;;;;;;26.14;59.22;98806.19;5137258;27;20053;-88
2023/07/08 06:25:51;;;;;;;11.55;8.70;;;;;;;25.99;59.67;98804.66;5136949;27;20510;-87
2023/07/08 06:28:35;;;;;;;12.68;9.48;;;;;;;26.02;59.17;98819.38;5152515;27;20067;-87
2023/07/08 06:31:19;;;;;;;13.68;9.15;;;;;;;26.38;58.98;98810.50;5137582;27;20448;-89
2023/07/08 06:34:04;;;;;;;15.00;9.73;;;;;;;26.74;57.97;98828.47;5151252;27;20049;-80
2023/07/08 06:36:49;;;;;;;12.88;8.35;;;;;;;26.64;58.98;98832.22;5153292;27;20095;-86
2023/07/08 06:39:37;;;;;;;11.98;8.32;;;;;;;26.63;59.29;98827.16;5151954;27;20061;-85
2023/07/08 06:42:21;;;;;;;12.40;8.90;;;;;;;26.39;58.54;98828.25;5152545;27;20098;-87
2023/07/08 06:45:05;;;;;;;12.25;8.68;;;;;;;26.25;59.10;98836.38;5157848;27;20576;-87
2023/07/08 06:47:50;;;;;;;10.48;8.90;;;;;;;25.89;59.84;98826.38;5160866;27;20095;-89
2023/07/08 06:50:34;;;;;;;13.52;8.63;;;;;;;25.78;60.74;98829.28;5142135;27;20492;-89
2023/07/08 06:53:18;;;;;;;14.38;9.70;;;;;;;25.70;61.02;98827.28;5141612;27;20130;-90
2023/07/08 06:56:02;;;;;;;12.55;9.25;;;;;;;25.79;61.35;98830.88;5155951;27;20045;-86
2023/07/08 06:58:46;;;;;;;11.95;9.13;;;;;;;25.86;60.58;98832.34;5158811;27;20057;-90
2023/07/08 07:01:31;;;;;;;15.23;9.60;;;;;;;25.93;61.04;98835.41;5145044;27;20163;-90
2023/07/08 07:04:15;;;;;;;12.68;9.77;;;;;;;26.10;61.14;98834.81;5144778;27;20063;-87
2023/07/08 07:06:59;;;;;;;14.20;10.95;;;;;;;26.04;59.92;98823.34;5136719;27;20515;-85
2023/07/08 07:09:43;;;;;;;14.25;9.70;;;;;;;26.43;60.46;98823.06;5151318;27;20557;-85
2023/07/08 07:12:27;;;;;;;13.18;9.77;;;;;;;26.74;60.00;98828.47;5151743;27;20503;-86
2023/07/08 07:15:11;;;;;;;16.02;10.85;;;;;;;26.78;59.94;98824.06;5136071;27;20046;-85
2023/07/08 07:17:55;;;;;;;13.82;9.85;;;;;;;26.91;59.71;98827.81;5152862;27;20042;-87
2023/07/08 07:20:48;;;;;;;15.57;10.93;;;;;;;27.05;60.11;98837.69;5136670;27;20511;-84
2023/07/08 07:23:32;;;;;;;15.43;9.65;;;;;;;27.08;59.78;98839.78;5151828;27;20456;-87
2023/07/08 07:26:16;;;;;;;12.95;9.43;;;;;;;27.07;60.80;98825.53;5137465;27;20041;-88
2023/07/08 07:29:01;;;;;;;13.95;9.35;;;;;;;27.17;60.59;98819.06;5136320;27;20041;-85
2023/07/08 07:31:47;;;;;;;19.30;10.57;;;;;;;27.23;61.06;98833.19;5152914;27;20063;-83
2023/07/08 07:34:31;;;;;;;14.18;10.40;;;;;;;27.16;61.46;98832.84;5159104;27;20049;-82
2023/07/08 07:37:17;;;;;;;16.63;10.23;;;;;;;27.22;60.49;98832.41;5156897;27;20037;-84
2023/07/08 07:40:02;;;;;;;15.55;10.90;;;;;;;27.17;60.93;98835.22;5158810;27;20127;-86
2023/07/08 07:42:46;;;;;;;13.93;9.40;;;;;;;27.29;60.98;98839.22;5158065;27;20034;-86
2023/07/08 07:45:31;;;;;;;14.65;10.43;;;;;;;27.48;60.78;98831.69;5155739;27;20395;-89
2023/07/08 07:48:15;;;;;;;14.75;9.77;;;;;;;27.71;60.47;98831.63;5140974;27;20449;-85
2023/07/08 07:50:59;;;;;;;15.63;10.20;;;;;;;27.91;60.56;98845.63;5132391;27;20041;-84
2023/07/08 07:53:44;;;;;;;13.95;9.90;;;;;;;28.00;60.75;98846.41;5155773;27;20070;-91
2023/07/08 07:56:28;;;;;;;16.55;10.73;;;;;;;28.04;60.77;98851.97;5143772;27;20054;-89
2023/07/08 07:59:11;;;;;;;13.55;9.80;;;;;;;28.26;59.94;98861.84;5160870;27;20045;-90
2023/07/08 08:01:55;;;;;;;13.15;9.13;;;;;;;28.62;59.48;98862.63;5162691;27;20045;-90
2023/07/08 08:04:39;;;;;;;14.68;10.10;;;;;;;28.73;58.22;98852.31;5147367;27;20038;-90
2023/07/08 08:07:23;;;;;;;15.85;10.00;;;;;;;28.81;58.61;98862.31;5162102;27;20415;-89
2023/07/08 08:10:08;;;;;;;14.15;9.75;;;;;;;29.10;57.96;98874.31;5142224;27;20048;-90
2023/07/08 08:12:52;;;;;;;14.10;9.63;;;;;;;29.26;58.32;98862.97;5141258;27;20560;-91
2023/07/08 08:15:37;;;;;;;17.67;9.88;;;;;;;29.60;57.23;98862.06;5125455;27;20053;-90
2023/07/08 08:18:21;;;;;;;13.55;9.48;;;;;;;29.94;56.33;98843.22;5126449;27;20039;-90
2023/07/08 08:21:05;;;;;;;13.32;8.82;;;;;;;30.40;55.68;98853.41;5130631;27;20088;-85
2023/07/08 08:23:49;;;;;;;14.00;9.30;;;;;;;30.38;55.79;98850.22;5146866;27;20037;-89
2023/07/08 08:26:33;;;;;;;11.45;8.50;;;;;;;30.48;55.21;98839.00;5146616;27;20056;-90
2023/07/08 08:29:17;;;;;;;14.45;9.88;;;;;;;30.39;54.84;98849.09;5125288;27;20139;-89
2023/07/08 08:32:01;;;;;;;15.80;9.52;;;;;;;30.50;55.68;98844.88;5138375;27;20087;-88
2023/07/08 08:34:46;;;;;;;13.73;8.27;;;;;;;30.64;55.13;98842.66;5146694;27;20092;-91
2023/07/08 08:37:30;;;;;;;14.02;9.25;;;;;;;30.82;55.22;98826.22;5163525;27;20532;-90
2023/07/08 08:40:17;;;;;;;15.20;9.10;;;;;;;31.14;53.58;98836.53;5146189;27;20045;-90
2023/07/08 08:43:05;;;;;;;12.27;8.73;;;;;;;31.40;54.83;98828.13;5145953;27;20060;-92
2023/07/08 08:45:55;;;;;;;15.15;9.15;;;;;;;31.77;54.21;98822.66;5144913;27;20038;-88
2023/07/08 08:48:53;;;;;;;13.30;9.63;;;;;;;31.87;52.74;98824.13;5143725;27;20095;-91
2023/07/08 08:51:40;;;;;;;12.68;9.35;;;;;;;32.08;52.95;98835.94;5161107;27;20506;-90
2023/07/08 08:54:25;;;;;;;15.73;9.13;;;;;;;32.08;52.61;98838.66;5145235;27;20103;-90
2023/07/08 08:57:22;;;;;;;12.98;9.20;;;;;;;32.09;52.83;98841.03;5143923;27;20041;-90
2023/07/08 09:00:11;;;;;;;16.55;9.82;;;;;;;32.04;52.54;98838.56;5153080;27;20049;-90
2023/07/08 09:03:09;;;;;;;11.65;9.07;;;;;;;32.38;53.89;98849.22;5152200;27;20042;-90
2023/07/08 09:05:58;;;;;;;14.90;9.48;;;;;;;32.28;54.04;98855.88;5154388;27;20506;-90
2023/07/08 09:08:43;;;;;;;13.73;9.57;;;;;;;32.23;53.85;98862.38;5144484;27;20525;-92
2023/07/08 09:11:40;;;;;;;15.10;8.98;;;;;;;32.40;52.94;98890.38;5141595;27;20034;-91
2023/07/08 09:14:29;;;;;;;15.25;9.55;;;;;;;31.97;54.04;98898.84;5123500;27;20050;-91
2023/07/08 09:17:34;;;;;;;17.15;10.77;;;;;;;31.97;53.90;98904.28;5157714;27;20163;-91
2023/07/08 09:20:28;;;;;;;10.82;9.13;;;;;;;32.07;53.25;98894.09;5144647;27;20038;-91
2023/07/08 09:23:21;;;;;;;13.30;9.30;;;;;;;31.84;53.44;98900.03;5160204;27;20041;-90
2023/07/08 09:26:16;;;;;;;14.10;9.77;;;;;;;31.61;52.93;98914.00;5154137;27;20065;-92
2023/07/08 09:29:00;;;;;;;9.35;8.13;;;;;;;31.95;53.22;98911.19;5161794;27;20048;-91
2023/07/08 09:31:44;;;;;;;14.13;8.40;;;;;;;31.60;53.34;98912.41;5150051;27;20038;-90
2023/07/08 09:34:42;;;;;;;12.30;8.80;;;;;;;31.70;53.92;98917.41;5161282;27;20380;-90
2023/07/08 09:37:32;;;;;;;10.52;8.35;;;;;;;31.56;54.14;98916.94;5141363;27;20120;-90
2023/07/08 09:40:30;;;;;;;13.73;9.13;;;;;;;31.66;54.37;98921.13;5159138;27;20037;-93
2023/07/08 09:43:42;;;;;;;13.23;9.27;;;;;;;31.65;54.34;98923.06;5158896;27;20050;-91
2023/07/08 09:46:26;;;;;;;13.88;10.02;;;;;;;31.55;53.67;98910.75;5158434;27;20061;-86
2023/07/08 09:49:19;;;;;;;14.35;10.18;;;;;;;31.88;54.48;98917.19;5152866;27;20041;-87
2023/07/08 09:52:04;;;;;;;11.65;9.82;;;;;;;32.27;53.76;98923.00;5137656;27;20065;-86
2023/07/08 09:54:49;;;;;;;11.52;9.45;;;;;;;32.34;53.40;98928.66;5153496;27;20038;-87
2023/07/08 09:57:34;;;;;;;12.43;8.80;;;;;;;32.30;53.70;98932.38;5152571;27;20122;-87
2023/07/08 10:00:28;;;;;;;11.60;9.15;;;;;;;32.64;54.60;98937.63;5153173;27;20050;-87
2023/07/08 10:03:21;;;;;;;11.20;9.13;;;;;;;32.73;54.50;98940.97;5136667;27;20098;-86
2023/07/08 10:06:17;;;;;;;12.60;8.88;;;;;;;32.89;53.77;98950.00;5154830;27;20050;-86
2023/07/08 10:09:18;;;;;;;12.57;9.15;;;;;;;32.76;53.49;98943.00;5137853;27;20033;-86
2023/07/08 10:12:09;;;;;;;11.23;8.98;;;;;;;33.38;53.17;98939.94;5152746;27;20037;-86
2023/07/08 10:15:03;;;;;;;10.68;9.43;;;;;;;33.63;51.84;98955.34;5135606;27;20057;-84
2023/07/08 10:17:47;;;;;;;;;;;;;;;33.99;51.88;98956.97;5152232;27;20499;-86
2023/07/08 10:20:49;;;;;;;10.07;8.43;;;;;;;33.98;52.00;98954.63;5135730;27;19918;-83
2023/07/08 10:24:11;;;;;;;13.20;9.10;;;;;;;34.71;52.24;98967.84;5144628;27;20491;-85
2023/07/08 10:27:35;;;;;;;11.55;8.90;;;;;;;34.57;51.21;98971.84;5136216;27;20083;-85
2023/07/08 10:30:31;;;;;;;10.25;8.27;;;;;;;34.58;51.04;98976.16;5095456;27;20045;-81
2023/07/08 10:33:25;;;;;;;13.60;8.80;;;;;;;34.35;50.86;98988.88;5151107;27;20053;-84
2023/07/08 10:36:21;;;;;;;12.40;8.55;;;;;;;34.40;51.53;99002.22;5137116;27;20087;-83
2023/07/08 10:39:50;;;;;;;12.45;9.23;;;;;;;33.98;52.29;99023.47;5152217;27;20499;-81
2023/07/08 10:43:05;;;;;;;16.55;8.95;;;;;;;33.41;52.52;99037.22;5135877;27;20095;-82
2023/07/08 10:46:11;;;;;;;12.30;9.10;;;;;;;32.71;54.57;99051.94;5150961;27;20034;-82
2023/07/08 10:49:19;;;;;;;9.90;8.68;;;;;;;32.93;53.57;99056.13;5135917;27;20045;-82
2023/07/08 10:52:38;;;;;;;15.02;9.30;;;;;;;32.69;54.15;99065.09;5151877;27;20057;-84
2023/07/08 10:55:33;;;;;;;11.20;9.50;;;;;;;32.87;53.60;99076.47;5153162;27;20046;-84
2023/07/08 10:58:39;;;;;;;13.25;9.60;;;;;;;32.80;54.21;99074.34;5152961;27;20056;-87
2023/07/08 11:02:05;;;;;;;15.60;10.23;;;;;;;32.67;53.91;99065.44;5132081;27;20548;-84
2023/07/08 11:05:03;;;;;;;17.60;10.43;;;;;;;32.78;54.46;99064.97;5134700;27;20042;-87
2023/07/08 11:07:59;;;;;;;15.18;10.75;;;;;;;31.89;55.46;99079.69;5139202;27;20038;-86
2023/07/08 11:10:52;;;;;;;14.18;9.88;;;;;;;31.97;55.85;99075.28;5141321;27;20046;-86
2023/07/08 11:13:44;;;;;;;12.77;10.48;;;;;;;32.11;57.05;99087.75;5141000;27;20042;-85
2023/07/08 11:16:46;;;;;;;12.45;9.68;;;;;;;32.55;56.73;99093.41;5153361;27;20042;-86
2023/07/08 11:19:45;;;;;;;23.90;10.93;;;;;;;32.48;56.07;99060.59;5156895;27;20457;-86
2023/07/08 11:22:33;;;;;;;14.88;10.60;;;;;;;32.58;55.60;99087.28;5156036;27;20050;-84
2023/07/08 11:25:20;;;;;;;14.20;11.05;;;;;;;32.04;56.84;99085.59;5141702;27;20050;-86
2023/07/08 11:28:13;;;;;;;16.30;10.05;;;;;;;32.24;57.03;99091.25;5156877;27;20049;-87
2023/07/08 11:31:01;;;;;;;16.95;10.70;;;;;;;31.48;57.76;99103.88;5156621;27;20042;-85
2023/07/08 11:33:46;;;;;;;15.90;10.50;;;;;;;31.38;58.21;99098.06;5140419;27;20583;-85
2023/07/08 11:36:33;;;;;;;17.67;11.23;;;;;;;30.85;59.34;99106.56;5157122;27;20105;-87
2023/07/08 11:39:38;;;;;;;16.42;10.95;;;;;;;30.57;60.31;99102.41;5156342;27;20122;-86
2023/07/08 11:42:45;;;;;;;13.48;11.00;;;;;;;30.03;61.63;99098.34;5140528;27;20045;-86
2023/07/08 11:45:38;;;;;;;14.85;11.00;;;;;;;29.58;67.68;99098.75;5141684;27;20091;-87
2023/07/08 11:48:37;;;;;;;13.45;11.32;;;;;;;29.03;71.01;99098.28;5141367;27;20598;-88
2023/07/08 11:51:29;;;;;;;18.27;11.73;;;;;;;28.86;73.87;99072.81;5141011;27;20549;-86
2023/07/08 11:54:28;;;;;;;14.27;11.35;;;;;;;28.47;77.41;99023.19;5139202;27;20069;-88
2023/07/08 11:57:31;;;;;;;18.45;11.00;;;;;;;28.40;75.88;99041.75;5154305;27;20075;-87
2023/07/08 12:00:19;;;;;;;17.35;12.27;;;;;;;28.39;79.26;99059.06;5153427;27;20049;-89
2023/07/08 12:03:22;;;;;;;16.60;11.95;;;;;;;28.54;81.52;99065.91;5153492;27;20050;-87
2023/07/08 12:06:29;;;;;;;18.23;12.82;;;;;;;28.81;81.73;99073.00;5139722;27;20053;-89
2023/07/08 12:09:21;;;;;;;15.65;11.63;;;;;;;29.04;82.13;99072.84;5154723;27;20050;-89
2023/07/08 12:12:14;;;;;;;18.48;13.13;;;;;;;29.13;82.01;99064.72;5138769;27;20046;-89
2023/07/08 12:15:09;;;;;;;14.70;12.13;;;;;;;29.37;82.82;99069.66;5154151;27;20050;-86
2023/07/08 12:18:15;;;;;;;18.65;12.32;;;;;;;29.56;82.45;99061.22;5151936;27;20060;-86
2023/07/08 12:21:01;;;;;;;15.15;11.98;;;;;;;29.85;80.81;99069.72;5138558;27;20090;-87
2023/07/08 12:23:46;;;;;;;17.88;11.95;;;;;;;30.05;79.39;99066.34;5138660;27;20144;-88
2023/07/08 12:26:32;;;;;;;14.27;11.45;;;;;;;30.34;76.44;99083.75;5138431;27;20096;-88
2023/07/08 12:29:16;;;;;;;14.18;10.57;;;;;;;30.16;76.73;99093.06;5137861;27;20038;-89
2023/07/08 12:32:01;;;;;;;16.17;11.18;;;;;;;30.11;77.17;99091.31;5153081;27;20127;-87
2023/07/08 12:34:45;;;;;;;17.10;10.55;;;;;;;29.88;78.41;99096.16;5137259;27;20564;-88
2023/07/08 12:37:29;;;;;;;13.98;10.10;;;;;;;29.68;79.04;99095.72;5153793;27;20088;-86
2023/07/08 12:40:14;;;;;;;15.20;10.48;;;;;;;29.54;78.93;99092.41;5138590;27;20038;-87
2023/07/08 12:43:01;;;;;;;14.75;10.50;;;;;;;29.27;82.08;99102.41;5152460;27;20530;-86
2023/07/08 12:45:46;;;;;;;13.80;9.93;;;;;;;29.31;81.25;99114.19;5137770;27;20073;-86
2023/07/08 12:48:34;;;;;;;12.93;9.77;;;;;;;29.07;82.55;99099.22;5153719;27;20042;-85
2023/07/08 12:51:21;;;;;;;12.82;9.77;;;;;;;29.03;82.01;99095.56;5152797;27;20046;-86
2023/07/08 12:54:05;;;;;;;15.10;9.43;;;;;;;29.19;81.45;99074.28;5136786;27;20115;-86
2023/07/08 12:56:49;;;;;;;12.88;8.93;;;;;;;29.27;82.14;99097.81;5152437;27;20548;-86
2023/07/08 12:59:33;;;;;;;12.50;8.70;;;;;;;29.49;81.45;99096.88;5109695;27;1221266;-86
2023/07/08 13:02:20;;;;;;;8.90;7.60;;;;;;;29.93;80.61;99118.41;5150804;27;20403;-86